createdAt,value
2023-02-05T00:01:14.799Z,37.40
2023-02-05T00:03:41.271Z,37.30
2023-02-05T00:06:07.780Z,37.30
2023-02-05T00:08:34.274Z,37.30
2023-02-05T00:11:00.757Z,37.30
2023-02-05T00:13:27.228Z,37.30
2023-02-05T00:15:53.681Z,37.20
2023-02-05T00:18:20.178Z,42.90
2023-02-05T00:20:46.674Z,37.30
2023-02-05T00:23:13.194Z,37.20
2023-02-05T00:25:39.701Z,37.20
2023-02-05T00:28:06.248Z,43.20
2023-02-05T00:30:32.861Z,37.10
2023-02-05T00:32:59.364Z,37.20
2023-02-05T00:35:25.827Z,37.10
2023-02-05T00:37:52.320Z,37.20
2023-02-05T00:40:18.813Z,37.20
2023-02-05T00:42:45.289Z,37.10
2023-02-05T00:45:11.800Z,37.10
2023-02-05T00:47:38.256Z,37.20
2023-02-05T00:50:04.776Z,37.20
2023-02-05T00:52:31.232Z,37.10
2023-02-05T00:54:57.681Z,37.00
2023-02-05T00:57:24.119Z,37.00
2023-02-05T00:59:50.589Z,37.00
2023-02-05T01:02:17.100Z,37.10
2023-02-05T01:04:43.668Z,37.10
2023-02-05T01:07:10.170Z,37.10
2023-02-05T01:09:36.689Z,37.10
2023-02-05T01:12:03.148Z,37.00
2023-02-05T01:14:29.606Z,37.00
2023-02-05T01:16:56.096Z,37.10
2023-02-05T01:19:22.570Z,37.00
2023-02-05T01:21:49.075Z,37.00
2023-02-05T01:24:15.569Z,37.00
2023-02-05T01:26:42.054Z,36.90
2023-02-05T01:29:08.570Z,37.00
2023-02-05T01:31:35.153Z,37.00
2023-02-05T01:34:01.729Z,37.10
2023-02-05T01:36:28.170Z,37.20
2023-02-05T01:38:54.646Z,37.20
2023-02-05T01:41:21.139Z,37.20
2023-02-05T01:43:47.658Z,37.40
2023-02-05T01:46:14.157Z,37.40
2023-02-05T01:48:40.660Z,37.20
2023-02-05T01:51:07.130Z,37.50
2023-02-05T01:53:33.625Z,37.20
2023-02-05T01:56:00.142Z,37.40
2023-02-05T01:58:26.635Z,37.50
2023-02-05T02:00:53.100Z,37.50
2023-02-05T02:03:19.593Z,37.30
2023-02-05T02:05:46.074Z,37.50
2023-02-05T02:08:12.532Z,44.90
2023-02-05T02:10:39.015Z,37.30
2023-02-05T02:13:05.486Z,37.30
2023-02-05T02:15:32.195Z,37.20
2023-02-05T02:17:58.947Z,37.10
2023-02-05T02:20:25.429Z,37.00
2023-02-05T02:22:51.920Z,37.00
2023-02-05T02:25:18.411Z,36.90
2023-02-05T02:27:44.912Z,36.80
2023-02-05T02:30:11.420Z,36.30
2023-02-05T02:32:37.921Z,36.90
2023-02-05T02:35:04.442Z,36.80
2023-02-05T02:37:30.933Z,36.90
2023-02-05T02:39:57.398Z,36.90
2023-02-05T02:42:23.858Z,36.80
2023-02-05T02:44:50.367Z,36.80
2023-02-05T02:47:16.807Z,36.70
2023-02-05T02:49:43.304Z,36.30
2023-02-05T02:52:09.751Z,36.80
2023-02-05T02:54:36.243Z,36.80
2023-02-05T02:57:03.856Z,36.70
2023-02-05T02:59:30.386Z,36.70
2023-02-05T03:01:56.862Z,36.60
2023-02-05T03:04:23.348Z,36.60
2023-02-05T03:06:49.862Z,36.70
2023-02-05T03:09:16.359Z,36.70
2023-02-05T03:11:42.837Z,36.70
2023-02-05T03:14:09.315Z,36.60
2023-02-05T03:16:35.932Z,36.60
2023-02-05T03:19:02.448Z,36.00
2023-02-05T03:21:28.972Z,36.60
2023-02-05T03:23:55.467Z,36.70
2023-02-05T03:26:21.959Z,36.70
2023-02-05T03:28:48.456Z,36.00
2023-02-05T03:31:14.985Z,36.70
2023-02-05T03:33:41.490Z,36.60
2023-02-05T03:36:07.990Z,36.60
2023-02-05T03:38:34.480Z,36.60
2023-02-05T03:41:00.992Z,36.60
2023-02-05T03:43:27.442Z,36.60
2023-02-05T03:45:53.912Z,36.60
2023-02-05T03:48:20.404Z,40.10
2023-02-05T03:50:46.905Z,36.60
2023-02-05T03:53:13.376Z,36.60
2023-02-05T03:55:39.819Z,36.50
2023-02-05T03:58:06.317Z,41.10
2023-02-05T04:00:32.771Z,36.40
2023-02-05T04:02:59.219Z,36.50
2023-02-05T04:05:25.672Z,36.50
2023-02-05T04:07:52.158Z,36.60
2023-02-05T04:10:18.629Z,36.00
2023-02-05T04:12:45.096Z,36.50
2023-02-05T04:15:11.647Z,36.60
2023-02-05T04:17:38.093Z,36.50
2023-02-05T04:20:04.571Z,35.90
2023-02-05T04:22:31.050Z,36.50
2023-02-05T04:24:57.535Z,36.50
2023-02-05T04:27:24.016Z,36.50
2023-02-05T04:29:50.457Z,36.50
2023-02-05T04:32:16.923Z,36.50
2023-02-05T04:34:43.376Z,36.40
2023-02-05T04:37:09.885Z,36.50
2023-02-05T04:39:36.337Z,36.00
2023-02-05T04:42:02.839Z,36.70
2023-02-05T04:44:29.303Z,36.80
2023-02-05T04:46:55.815Z,37.00
2023-02-05T04:49:22.303Z,37.10
2023-02-05T04:51:48.808Z,37.00
2023-02-05T04:54:15.330Z,36.90
2023-02-05T04:56:41.818Z,37.10
2023-02-05T04:59:08.282Z,37.20
2023-02-05T05:01:34.809Z,37.30
2023-02-05T05:04:01.308Z,37.20
2023-02-05T05:06:27.777Z,37.00
2023-02-05T05:08:54.217Z,36.80
2023-02-05T05:11:20.659Z,36.70
2023-02-05T05:13:47.153Z,36.80
2023-02-05T05:16:13.720Z,36.60
2023-02-05T05:18:40.182Z,36.70
2023-02-05T05:21:06.679Z,36.70
2023-02-05T05:23:33.118Z,36.60
2023-02-05T05:25:59.627Z,36.50
2023-02-05T05:28:26.119Z,35.80
2023-02-05T05:30:52.625Z,36.40
2023-02-05T05:33:19.134Z,35.80
2023-02-05T05:35:45.696Z,36.40
2023-02-05T05:38:12.159Z,40.80
2023-02-05T05:40:38.597Z,36.30
2023-02-05T05:43:05.044Z,36.20
2023-02-05T05:45:31.804Z,36.20
2023-02-05T05:47:58.484Z,36.20
2023-02-05T05:50:24.999Z,36.20
2023-02-05T05:52:51.473Z,36.20
2023-02-05T05:55:18.003Z,36.20
2023-02-05T05:57:44.468Z,36.20
2023-02-05T06:00:10.992Z,36.20
2023-02-05T06:02:37.465Z,36.10
2023-02-05T06:05:03.994Z,36.20
2023-02-05T06:07:30.443Z,36.20
2023-02-05T06:09:56.907Z,36.20
2023-02-05T06:12:23.388Z,36.20
2023-02-05T06:14:49.919Z,36.10
2023-02-05T06:17:16.384Z,36.10
2023-02-05T06:19:42.824Z,36.10
2023-02-05T06:22:09.277Z,36.10
2023-02-05T06:24:35.723Z,36.10
2023-02-05T06:27:02.192Z,36.20
2023-02-05T06:29:28.686Z,36.20
2023-02-05T06:31:55.191Z,36.10
2023-02-05T06:34:21.715Z,36.20
2023-02-05T06:36:48.262Z,36.20
2023-02-05T06:39:14.778Z,35.70
2023-02-05T06:41:41.260Z,36.10
2023-02-05T06:44:07.763Z,36.10
2023-02-05T06:46:34.301Z,36.00
2023-02-05T06:49:00.814Z,36.10
2023-02-05T06:51:27.250Z,36.10
2023-02-05T06:53:53.687Z,36.00
2023-02-05T06:56:20.198Z,36.10
2023-02-05T06:58:46.678Z,36.00
2023-02-05T07:01:13.178Z,36.10
2023-02-05T07:03:39.638Z,36.00
2023-02-05T07:06:06.141Z,36.00
2023-02-05T07:08:32.593Z,36.10
2023-02-05T07:10:59.089Z,36.10
2023-02-05T07:13:25.561Z,36.10
2023-02-05T07:15:52.085Z,36.10
2023-02-05T07:18:18.566Z,41.20
2023-02-05T07:20:45.063Z,36.00
2023-02-05T07:23:11.572Z,35.90
2023-02-05T07:25:38.078Z,36.00
2023-02-05T07:30:31.543Z,35.50
2023-02-05T07:32:58.005Z,36.10
2023-02-05T07:35:24.498Z,36.10
2023-02-05T07:37:50.942Z,36.20
2023-02-05T07:40:17.444Z,36.20
2023-02-05T07:42:43.894Z,36.30
2023-02-05T07:45:10.342Z,36.50
2023-02-05T07:47:36.796Z,36.50
2023-02-05T07:50:03.325Z,36.60
2023-02-05T07:52:29.775Z,36.50
2023-02-05T07:54:56.285Z,36.50
2023-02-05T07:57:22.745Z,36.60
2023-02-05T07:59:49.236Z,36.50
2023-02-05T08:02:15.754Z,37.10
2023-02-05T08:04:42.233Z,36.90
2023-02-05T08:07:08.729Z,36.80
2023-02-05T08:09:35.218Z,36.70
2023-02-05T08:12:01.718Z,37.60
2023-02-05T08:14:28.203Z,37.90
2023-02-05T08:16:54.705Z,37.30
2023-02-05T08:19:21.161Z,37.30
2023-02-05T08:21:47.638Z,37.30
2023-02-05T08:24:14.088Z,37.30
2023-02-05T08:26:40.550Z,38.10
2023-02-05T08:29:07.061Z,38.10
2023-02-05T08:31:33.535Z,37.60
2023-02-05T08:34:00.163Z,37.40
2023-02-05T08:36:26.769Z,37.10
2023-02-05T08:38:53.256Z,37.10
2023-02-05T08:41:19.712Z,37.30
2023-02-05T08:43:46.186Z,37.40
2023-02-05T08:46:12.704Z,37.30
2023-02-05T08:48:39.236Z,36.70
2023-02-05T08:51:05.699Z,37.20
2023-02-05T08:53:32.189Z,37.10
2023-02-05T08:55:58.694Z,37.20
2023-02-05T08:58:25.158Z,36.90
2023-02-05T09:00:51.701Z,37.40
2023-02-05T09:03:18.188Z,37.20
2023-02-05T09:05:44.659Z,37.50
2023-02-05T09:08:11.110Z,43.90
2023-02-05T09:10:37.549Z,37.70
2023-02-05T09:13:04.061Z,37.70
2023-02-05T09:15:30.563Z,37.70
2023-02-05T09:17:57.009Z,37.70
2023-02-05T09:20:23.470Z,37.70
2023-02-05T09:22:49.911Z,37.70
2023-02-05T09:25:16.409Z,37.50
2023-02-05T09:27:42.892Z,37.50
2023-02-05T09:30:09.447Z,37.10
2023-02-05T09:32:36.036Z,37.60
2023-02-05T09:35:02.572Z,37.70
2023-02-05T09:37:29.039Z,38.30
2023-02-05T09:40:20.043Z,37.30
2023-02-05T09:42:42.236Z,37.80
2023-02-05T09:45:08.920Z,37.80
2023-02-05T09:47:35.467Z,37.60
2023-02-05T09:50:01.992Z,37.60
2023-02-05T09:52:28.504Z,37.70
2023-02-05T09:54:54.990Z,37.60
2023-02-05T09:57:21.482Z,37.50
2023-02-05T09:59:47.999Z,37.00
2023-02-05T10:02:14.544Z,37.60
2023-02-05T10:04:41.118Z,37.50
2023-02-05T10:07:07.681Z,37.50
2023-02-05T10:09:34.172Z,36.80
2023-02-05T10:12:00.680Z,37.30
2023-02-05T10:14:27.139Z,37.20
2023-02-05T10:16:53.638Z,37.20
2023-02-05T10:19:20.155Z,37.30
2023-02-05T10:21:46.657Z,37.20
2023-02-05T10:24:13.154Z,37.30
2023-02-05T10:26:39.601Z,37.30
2023-02-05T10:29:06.108Z,37.30
2023-02-05T10:31:32.622Z,37.20
2023-02-05T10:33:59.136Z,37.30
2023-02-05T10:36:25.602Z,37.20
2023-02-05T10:38:52.051Z,37.20
2023-02-05T10:41:18.491Z,37.20
2023-02-05T10:43:44.929Z,37.20
2023-02-05T10:46:11.407Z,37.20
2023-02-05T10:48:37.892Z,37.20
2023-02-05T10:51:04.398Z,37.30
2023-02-05T10:53:30.924Z,37.40
2023-02-05T10:55:57.388Z,37.50
2023-02-05T10:58:23.833Z,45.00
2023-02-05T11:00:50.369Z,37.70
2023-02-05T11:03:16.842Z,37.70
2023-02-05T11:05:44.507Z,37.60
2023-02-05T11:08:11.388Z,37.60
2023-02-05T11:10:37.988Z,37.60
2023-02-05T11:13:04.505Z,37.50
2023-02-05T11:15:31.007Z,37.50
2023-02-05T11:17:57.492Z,37.50
2023-02-05T11:20:23.989Z,37.40
2023-02-05T11:22:50.441Z,37.40
2023-02-05T11:25:16.925Z,37.40
2023-02-05T11:27:43.532Z,37.40
2023-02-05T11:30:09.995Z,37.40
2023-02-05T11:32:36.509Z,37.30
2023-02-05T11:35:03.021Z,37.50
2023-02-05T11:37:29.539Z,37.40
2023-02-05T11:39:56.143Z,36.90
2023-02-05T11:42:22.634Z,37.50
2023-02-05T11:44:49.135Z,37.50
2023-02-05T11:47:15.614Z,37.60
2023-02-05T11:49:42.114Z,36.90
2023-02-05T11:52:08.590Z,37.40
2023-02-05T11:54:35.057Z,37.40
2023-02-05T11:57:01.590Z,37.40
2023-02-05T11:59:28.053Z,37.30
2023-02-05T12:01:54.605Z,37.30
2023-02-05T12:04:21.138Z,37.30
2023-02-05T12:06:47.579Z,37.30
2023-02-05T12:09:14.018Z,37.20
2023-02-05T12:11:40.484Z,37.10
2023-02-05T12:14:06.980Z,37.20
2023-02-05T12:16:33.552Z,37.00
2023-02-05T12:19:00.098Z,37.00
2023-02-05T12:21:26.548Z,37.60
2023-02-05T12:23:53.046Z,38.40
2023-02-05T12:26:19.502Z,38.20
2023-02-05T12:28:46.024Z,37.40
2023-02-05T12:31:12.523Z,37.90
2023-02-05T12:33:39.029Z,37.90
2023-02-05T12:36:05.511Z,37.90
2023-02-05T12:38:32.931Z,37.20
2023-02-05T12:40:59.508Z,37.80
2023-02-05T12:43:25.951Z,38.10
2023-02-05T12:45:52.417Z,38.00
2023-02-05T12:48:18.908Z,43.70
2023-02-05T12:50:45.434Z,38.40
2023-02-05T12:53:11.867Z,38.60
2023-02-05T12:55:38.379Z,38.40
2023-02-05T12:58:04.874Z,39.30
2023-02-05T13:00:31.372Z,39.40
2023-02-05T13:02:57.823Z,39.70
2023-02-05T13:05:24.276Z,39.60
2023-02-05T13:07:50.722Z,39.60
2023-02-05T13:10:17.154Z,39.00
2023-02-05T13:12:43.669Z,39.30
2023-02-05T13:15:10.159Z,39.40
2023-02-05T13:17:36.651Z,39.30
2023-02-05T13:20:03.159Z,38.50
2023-02-05T13:22:29.602Z,39.10
2023-02-05T13:24:56.108Z,38.90
2023-02-05T13:27:22.562Z,39.00
2023-02-05T13:29:49.003Z,39.10
2023-02-05T13:32:16.395Z,39.80
2023-02-05T13:34:43.127Z,39.20
2023-02-05T13:37:09.585Z,39.20
2023-02-05T13:39:36.094Z,39.30
2023-02-05T13:42:02.615Z,39.70
2023-02-05T13:44:29.097Z,39.50
2023-02-05T13:46:55.596Z,39.50
2023-02-05T13:49:22.045Z,40.10
2023-02-05T13:51:48.479Z,39.60
2023-02-05T13:54:14.969Z,39.70
2023-02-05T13:56:41.418Z,40.40
2023-02-05T13:59:07.899Z,39.80
2023-02-05T14:01:34.522Z,40.00
2023-02-05T14:04:01.048Z,39.50
2023-02-05T14:06:27.593Z,39.40
2023-02-05T14:08:54.090Z,39.50
2023-02-05T14:11:20.600Z,39.60
2023-02-05T14:13:47.065Z,40.50
2023-02-05T14:16:13.548Z,39.60
2023-02-05T14:18:40.102Z,39.10
2023-02-05T14:21:06.594Z,40.50
2023-02-05T14:23:33.040Z,41.70
2023-02-05T14:25:59.556Z,40.70
2023-02-05T14:28:26.034Z,40.90
2023-02-05T14:30:52.718Z,41.60
2023-02-05T14:33:19.401Z,40.20
2023-02-05T14:35:45.907Z,40.10
2023-02-05T14:38:12.370Z,46.60
2023-02-05T14:40:38.879Z,40.40
2023-02-05T14:43:10.586Z,40.50
2023-02-05T14:45:37.265Z,40.30
2023-02-05T14:48:03.749Z,40.50
2023-02-05T14:50:30.207Z,40.80
2023-02-05T14:52:56.690Z,40.90
2023-02-05T14:55:23.141Z,41.10
2023-02-05T14:57:49.601Z,41.00
2023-02-05T15:00:16.035Z,41.10
2023-02-05T15:02:42.524Z,41.10
2023-02-05T15:05:09.023Z,40.40
2023-02-05T15:07:35.513Z,40.30
2023-02-05T15:10:02.008Z,39.60
2023-02-05T15:12:28.530Z,40.30
2023-02-05T15:14:55.043Z,40.30
2023-02-05T15:17:21.554Z,40.20
2023-02-05T15:19:48.080Z,40.00
2023-02-05T15:22:14.587Z,39.80
2023-02-05T15:24:41.077Z,40.00
2023-02-05T15:27:07.546Z,39.90
2023-02-05T15:29:34.013Z,39.70
2023-02-05T15:32:00.471Z,39.50
2023-02-05T15:34:26.984Z,39.60
2023-02-05T15:36:53.431Z,39.60
2023-02-05T15:39:19.971Z,39.40
2023-02-05T15:41:46.465Z,39.20
2023-02-05T15:44:12.909Z,39.50
2023-02-05T15:46:39.428Z,39.40
2023-02-05T15:49:05.886Z,39.20
2023-02-05T15:51:32.374Z,39.30
2023-02-05T15:53:58.860Z,39.30
2023-02-05T15:56:25.351Z,39.50
2023-02-05T15:58:51.788Z,39.60
2023-02-05T16:01:18.280Z,39.40
2023-02-05T16:03:44.751Z,39.50
2023-02-05T16:06:11.259Z,39.50
2023-02-05T16:08:37.714Z,39.70
2023-02-05T16:11:04.147Z,39.60
2023-02-05T16:13:30.588Z,39.60
2023-02-05T16:15:57.083Z,39.50
2023-02-05T16:18:23.613Z,46.40
2023-02-05T16:20:50.128Z,39.40
2023-02-05T16:23:16.652Z,39.20
2023-02-05T16:25:43.144Z,39.30
2023-02-05T16:28:09.701Z,45.70
2023-02-05T16:30:36.425Z,39.40
2023-02-05T16:33:03.134Z,39.20
2023-02-05T16:35:29.829Z,39.30
2023-02-05T16:37:56.364Z,39.30
2023-02-05T16:40:22.853Z,38.90
2023-02-05T16:42:49.286Z,39.60
2023-02-05T16:45:15.729Z,39.90
2023-02-05T16:47:42.166Z,40.00
2023-02-05T16:50:08.637Z,39.60
2023-02-05T16:52:35.096Z,40.40
2023-02-05T16:55:01.590Z,40.60
2023-02-05T16:57:28.100Z,40.70
2023-02-05T16:59:54.616Z,41.00
2023-02-05T17:02:21.101Z,41.30
2023-02-05T17:04:47.642Z,41.00
2023-02-05T17:07:14.110Z,40.80
2023-02-05T17:09:40.600Z,40.60
2023-02-05T17:12:07.088Z,40.30
2023-02-05T17:14:33.534Z,40.20
2023-02-05T17:16:59.989Z,39.90
2023-02-05T17:19:26.498Z,40.40
2023-02-05T17:21:52.954Z,40.00
2023-02-05T17:24:19.402Z,39.70
2023-02-05T17:26:45.892Z,39.60
2023-02-05T17:29:12.409Z,39.60
2023-02-05T17:31:38.934Z,39.40
2023-02-05T17:34:05.460Z,39.40
2023-02-05T17:36:31.965Z,39.60
2023-02-05T17:38:58.466Z,40.20
2023-02-05T17:41:24.915Z,39.60
2023-02-05T17:43:51.392Z,39.70
2023-02-05T17:46:17.963Z,39.70
2023-02-05T17:48:44.443Z,39.30
2023-02-05T17:51:10.914Z,39.80
2023-02-05T17:53:37.357Z,39.80
2023-02-05T17:56:03.854Z,39.60
2023-02-05T17:58:30.395Z,39.80
2023-02-05T18:00:56.939Z,39.70
2023-02-05T18:03:23.434Z,39.80
2023-02-05T18:05:49.882Z,39.80
2023-02-05T18:08:16.393Z,45.60
2023-02-05T18:10:42.839Z,39.70
2023-02-05T18:13:09.295Z,39.70
2023-02-05T18:15:35.786Z,39.80
2023-02-05T18:18:02.309Z,39.80
2023-02-05T18:20:28.790Z,39.20
2023-02-05T18:22:55.251Z,39.70
2023-02-05T18:25:21.738Z,39.60
2023-02-05T18:27:48.277Z,39.60
2023-02-05T18:30:14.813Z,39.20
2023-02-05T18:32:41.301Z,39.70
2023-02-05T18:35:07.763Z,39.60
2023-02-05T18:37:34.255Z,39.60
2023-02-05T18:40:00.793Z,39.00
2023-02-05T18:42:27.328Z,39.50
2023-02-05T18:44:53.830Z,39.60
2023-02-05T18:47:20.327Z,39.50
2023-02-05T18:49:46.865Z,38.90
2023-02-05T18:52:13.396Z,39.40
2023-02-05T18:54:39.853Z,39.20
2023-02-05T18:57:06.357Z,39.30
2023-02-05T18:59:32.855Z,38.60
2023-02-05T19:01:59.379Z,39.00
2023-02-05T19:04:25.841Z,38.90
2023-02-05T19:06:52.423Z,38.80
2023-02-05T19:09:19.128Z,38.30
2023-02-05T19:11:45.607Z,38.80
2023-02-05T19:14:12.133Z,38.80
2023-02-05T19:16:38.665Z,38.80
2023-02-05T19:19:05.155Z,38.80
2023-02-05T19:21:31.613Z,38.10
2023-02-05T19:23:58.116Z,38.70
2023-02-05T19:26:24.641Z,38.10
2023-02-05T19:28:51.175Z,43.40
2023-02-05T19:31:17.768Z,38.50
2023-02-05T19:33:44.330Z,38.50
2023-02-05T19:36:10.825Z,38.50
2023-02-05T19:38:37.298Z,38.40
2023-02-05T19:41:03.810Z,38.40
2023-02-05T19:43:30.256Z,38.40
2023-02-05T19:45:56.752Z,38.40
2023-02-05T19:48:23.198Z,42.20
2023-02-05T19:50:49.643Z,38.50
2023-02-05T19:53:16.139Z,38.60
2023-02-05T19:55:42.643Z,38.70
2023-02-05T19:58:09.098Z,42.60
2023-02-05T20:00:35.805Z,38.60
2023-02-05T20:03:02.436Z,38.60
2023-02-05T20:05:28.892Z,38.50
2023-02-05T20:07:55.345Z,38.40
2023-02-05T20:10:21.828Z,38.40
2023-02-05T20:12:48.316Z,38.40
2023-02-05T20:15:14.777Z,38.50
2023-02-05T20:17:41.274Z,38.60
2023-02-05T20:20:15.713Z,38.70
2023-02-05T20:22:46.383Z,38.50
2023-02-05T20:25:12.864Z,38.40
2023-02-05T20:27:39.355Z,38.40
2023-02-05T20:30:05.864Z,38.40
2023-02-05T20:32:32.369Z,39.00
2023-02-05T20:34:58.863Z,38.40
2023-02-05T20:37:25.320Z,38.30
2023-02-05T20:39:51.806Z,38.40
2023-02-05T20:42:18.312Z,38.40
2023-02-05T20:44:44.789Z,38.40
2023-02-05T20:47:11.279Z,38.40
2023-02-05T20:49:37.742Z,37.70
2023-02-05T20:52:04.197Z,38.40
2023-02-05T20:54:30.643Z,38.40
2023-02-05T20:56:57.184Z,38.30
2023-02-05T20:59:23.694Z,37.70
2023-02-05T21:01:50.230Z,38.10
2023-02-05T21:04:16.738Z,38.00
2023-02-05T21:06:43.200Z,38.00
2023-02-05T21:09:09.647Z,41.50
2023-02-05T21:11:36.150Z,38.00
2023-02-05T21:14:02.613Z,38.00
2023-02-05T21:16:29.123Z,37.90
2023-02-05T21:18:55.629Z,37.30
2023-02-05T21:21:22.134Z,37.80
2023-02-05T21:23:48.594Z,37.80
2023-02-05T21:26:15.040Z,37.80
2023-02-05T21:28:41.485Z,37.20
2023-02-05T21:31:08.004Z,37.20
2023-02-05T21:33:34.518Z,37.70
2023-02-05T21:36:00.958Z,37.70
2023-02-05T21:38:27.390Z,37.10
2023-02-05T21:40:53.900Z,37.70
2023-02-05T21:43:20.363Z,37.60
2023-02-05T21:45:46.877Z,37.70
2023-02-05T21:48:13.343Z,41.40
2023-02-05T21:50:39.829Z,37.50
2023-02-05T21:53:06.279Z,37.60
2023-02-05T21:55:32.765Z,37.50
2023-02-05T21:57:59.257Z,37.50
2023-02-05T22:00:25.715Z,37.50
2023-02-05T22:02:52.196Z,37.40
2023-02-05T22:05:18.631Z,37.50
2023-02-05T22:07:45.074Z,37.50
2023-02-05T22:10:11.532Z,36.90
2023-02-05T22:12:37.974Z,37.40
2023-02-05T22:15:04.460Z,37.40
2023-02-05T22:17:30.981Z,36.80
2023-02-05T22:19:57.469Z,36.80
2023-02-05T22:22:23.986Z,37.30
2023-02-05T22:24:50.466Z,37.30
2023-02-05T22:27:17.003Z,37.30
2023-02-05T22:29:43.518Z,36.70
2023-02-05T22:32:09.962Z,37.20
2023-02-05T22:34:36.414Z,37.20
2023-02-05T22:37:02.853Z,36.60
2023-02-05T22:39:29.309Z,37.20
2023-02-05T22:41:55.802Z,37.10
2023-02-05T22:44:22.298Z,37.20
2023-02-05T22:46:48.759Z,37.20
2023-02-05T22:49:15.429Z,37.10
2023-02-05T22:51:41.990Z,36.60
2023-02-05T22:54:08.492Z,37.10
2023-02-05T22:56:34.979Z,37.00
2023-02-05T22:59:03.279Z,37.00
2023-02-05T23:01:30.141Z,37.10
2023-02-05T23:03:56.764Z,37.10
2023-02-05T23:06:23.210Z,37.10
2023-02-05T23:08:49.718Z,36.50
2023-02-05T23:11:16.165Z,37.10
2023-02-05T23:13:42.639Z,37.00
2023-02-05T23:16:09.081Z,37.10
2023-02-05T23:18:35.529Z,36.60
2023-02-05T23:21:02.020Z,37.20
2023-02-05T23:23:28.469Z,37.10
2023-02-05T23:25:54.977Z,37.20
2023-02-05T23:28:21.485Z,41.80
2023-02-05T23:30:48.031Z,37.20
2023-02-05T23:33:14.558Z,37.20
2023-02-05T23:35:41.006Z,37.10
2023-02-05T23:38:07.493Z,41.40
2023-02-05T23:40:33.983Z,37.00
2023-02-05T23:43:00.511Z,37.00
2023-02-05T23:45:26.970Z,36.90
2023-02-05T23:47:53.414Z,36.90
2023-02-05T23:50:19.928Z,36.90
2023-02-05T23:52:46.400Z,36.90
2023-02-05T23:55:12.839Z,36.90
2023-02-05T23:57:39.334Z,36.80
